Time;durP1;ratioP1;P1;durP2;ratioP2;P2;SDS_P1;SDS_P2;PMS_P1;PMS_P2;Temp;Humidity;BMP_temperature;BMP_pressure;BME280_temperature;BME280_humidity;BME280_pressure;Samples;Min_cycle;Max_cycle;Signal;HPM_P1;HPM_P2
2022/04/04 00:00:45;;;;;;;11.60;5.63;;;20.70;48.70;;;;;;5051224;28;20037;-72
2022/04/04 00:03:11;;;;;;;11.27;4.85;;;20.70;48.90;;;;;;5049729;28;20024;-71
2022/04/04 00:05:38;;;;;;;10.73;5.25;;;20.70;49.00;;;;;;5050804;28;20047;-72
2022/04/04 00:08:05;;;;;;;10.35;5.00;;;20.60;49.20;;;;;;5051015;28;20635;-71
2022/04/04 00:10:31;;;;;;;8.85;4.47;;;20.70;51.20;;;;;;5050250;28;20036;-73
2022/04/04 00:12:56;;;;;;;131.90;123.82;;;20.70;49.00;;;;;;5049822;28;20030;-72
2022/04/04 00:15:22;;;;;;;11.02;5.50;;;20.70;50.70;;;;;;5033421;28;20578;-72
2022/04/04 00:17:48;;;;;;;169.00;158.68;;;20.70;49.80;;;;;;5049736;28;20084;-72
2022/04/04 00:20:14;;;;;;;80.47;75.50;;;20.70;50.00;;;;;;5050771;28;20032;-72
2022/04/04 00:22:41;;;;;;;9.52;4.80;;;20.80;50.50;;;;;;5050608;28;20036;-72
2022/04/04 00:25:07;;;;;;;17.30;15.30;;;20.70;50.50;;;;;;5049879;28;20025;-72
2022/04/04 00:27:33;;;;;;;9.60;4.72;;;20.80;51.10;;;;;;5049865;28;20025;-72
2022/04/04 00:29:58;;;;;;;9.65;5.10;;;20.80;50.50;;;;;;5032745;28;20600;-72
2022/04/04 00:32:24;;;;;;;10.18;4.80;;;20.80;51.10;;;;;;5050608;28;20033;-72
2022/04/04 00:34:50;;;;;;;10.93;4.80;;;20.70;50.80;;;;;;5050704;28;20032;-72
2022/04/04 00:37:16;;;;;;;682.15;600.03;;;20.70;51.00;;;;;;5050874;28;20033;-69
2022/04/04 00:39:41;;;;;;;16.02;12.88;;;20.70;50.50;;;;;;5050648;28;20083;-69
2022/04/04 00:42:08;;;;;;;100.88;84.22;;;20.50;42.70;;;;;;5050570;28;20033;-72
2022/04/04 00:44:34;;;;;;;41.97;37.78;;;20.10;38.80;;;;;;5049645;28;20428;-72
2022/04/04 00:46:59;;;;;;;208.35;144.13;;;20.10;39.70;;;;;;5051017;28;20075;-72
2022/04/04 00:49:25;;;;;;;21.77;17.10;;;20.10;40.90;;;;;;5050664;28;20021;-72
2022/04/04 00:51:51;;;;;;;16.48;8.38;;;20.20;42.30;;;;;;5036883;28;20257;-72
2022/04/04 00:54:17;;;;;;;15.52;8.98;;;20.30;43.20;;;;;;5053292;28;20424;-72
2022/04/04 00:56:45;;;;;;;16.42;7.95;;;20.30;44.20;;;;;;5053163;28;20443;-71
2022/04/04 00:59:15;;;;;;;12.52;7.18;;;20.30;44.90;;;;;;5053125;28;20067;-72
2022/04/04 01:01:41;;;;;;;12.55;7.25;;;20.30;45.80;;;;;;5055050;28;20045;-72
2022/04/04 01:04:08;;;;;;;12.70;7.68;;;20.40;46.00;;;;;;5053879;28;20123;-72
2022/04/04 01:06:38;;;;;;;15.63;7.63;;;20.40;46.50;;;;;;5054296;28;20025;-72
2022/04/04 01:09:04;;;;;;;11.70;7.22;;;20.40;46.80;;;;;;5054112;28;20032;-72
2022/04/04 01:11:31;;;;;;;14.88;7.30;;;20.40;47.30;;;;;;5054096;28;20032;-71
2022/04/04 01:13:57;;;;;;;14.07;6.72;;;20.40;47.80;;;;;;5052674;28;20112;-72
2022/04/04 01:16:23;;;;;;;13.27;7.20;;;20.40;48.20;;;;;;5053969;28;20033;-71
2022/04/04 01:18:49;;;;;;;12.38;6.85;;;20.40;48.30;;;;;;5054117;28;20032;-72
2022/04/04 01:21:21;;;;;;;11.40;6.72;;;20.50;48.70;;;;;;5053844;28;20033;-72
2022/04/04 01:23:49;;;;;;;11.95;6.47;;;20.50;48.80;;;;;;5053583;28;20031;-72
2022/04/04 01:26:20;;;;;;;13.30;6.57;;;20.50;49.30;;;;;;5052797;28;20029;-72
2022/04/04 01:28:51;;;;;;;17.45;15.50;;;20.50;49.10;;;;;;5052359;28;20685;-72
2022/04/04 01:31:17;;;;;;;13.93;6.47;;;20.50;49.10;;;;;;5052932;28;20025;-72
2022/04/04 01:33:43;;;;;;;9.57;6.00;;;20.50;49.50;;;;;;5051854;28;20025;-72
2022/04/04 01:36:09;;;;;;;11.00;6.07;;;20.50;49.60;;;;;;5053344;28;20049;-72
2022/04/04 01:38:34;;;;;;;11.10;6.43;;;20.50;49.70;;;;;;5052563;28;20028;-72
2022/04/04 01:41:00;;;;;;;12.70;6.20;;;20.50;50.90;;;;;;5019773;28;20037;-73
2022/04/04 01:43:26;;;;;;;12.05;6.60;;;20.50;50.10;;;;;;5052134;28;20090;-72
2022/04/04 01:48:36;;;;;;;9.68;5.70;;;20.50;50.30;;;;;;5053742;28;20539;-72
2022/04/04 01:51:02;;;;;;;10.77;6.40;;;20.50;51.40;;;;;;5053469;28;20050;-73
2022/04/04 01:53:29;;;;;;;15.57;8.60;;;20.50;50.90;;;;;;5053268;28;20029;-72
2022/04/04 01:56:05;;;;;;;12.57;6.10;;;20.50;50.80;;;;;;5053304;28;20344;-72
2022/04/04 01:58:32;;;;;;;9.88;5.40;;;20.50;51.00;;;;;;5053327;28;20031;-73
2022/04/04 02:01:01;;;;;;;14.73;6.13;;;20.50;51.20;;;;;;5053046;28;20086;-73
2022/04/04 02:03:29;;;;;;;10.85;6.10;;;20.50;51.20;;;;;;5051523;28;20025;-72
2022/04/04 02:05:55;;;;;;;12.25;5.88;;;20.50;51.30;;;;;;5053134;28;20470;-73
2022/04/04 02:08:20;;;;;;;10.60;5.72;;;20.50;51.50;;;;;;5052062;28;20021;-72
2022/04/04 02:10:46;;;;;;;10.02;5.45;;;20.50;51.30;;;;;;5052892;28;20029;-73
2022/04/04 02:13:12;;;;;;;10.20;5.93;;;20.50;51.50;;;;;;5051735;28;20367;-72
2022/04/04 02:15:38;;;;;;;111.13;87.90;;;20.50;51.60;;;;;;5052916;28;20036;-72
2022/04/04 02:18:05;;;;;;;9.27;5.57;;;20.50;51.60;;;;;;5053345;28;20566;-72
2022/04/04 02:20:31;;;;;;;12.18;5.50;;;20.50;51.50;;;;;;5052876;28;20115;-72
2022/04/04 02:22:57;;;;;;;8.80;5.18;;;20.50;51.70;;;;;;5052419;28;20072;-72
2022/04/04 02:25:23;;;;;;;12.90;5.30;;;20.50;51.80;;;;;;5051383;28;20053;-72
2022/04/04 02:27:49;;;;;;;46.63;42.78;;;20.50;51.50;;;;;;5051476;28;20036;-72
2022/04/04 02:30:14;;;;;;;11.18;5.38;;;20.50;51.60;;;;;;5051474;28;20032;-72
2022/04/04 02:32:40;;;;;;;10.10;5.93;;;20.50;51.60;;;;;;5052377;28;20047;-73
2022/04/04 02:35:06;;;;;;;10.43;5.63;;;20.50;51.40;;;;;;5052672;28;20108;-73
2022/04/04 02:37:32;;;;;;;9.23;5.40;;;20.50;51.60;;;;;;5018460;28;20032;-72
2022/04/04 02:39:58;;;;;;;53.03;49.00;;;20.50;51.50;;;;;;5051139;28;20043;-72
2022/04/04 02:42:24;;;;;;;11.40;5.30;;;20.50;51.60;;;;;;5050656;28;20029;-73
2022/04/04 02:44:49;;;;;;;11.10;5.18;;;20.50;51.40;;;;;;5052340;28;20075;-72
2022/04/04 02:47:15;;;;;;;9.63;4.78;;;20.50;51.60;;;;;;5052253;28;20029;-72
2022/04/04 02:49:41;;;;;;;19.55;17.63;;;20.50;51.80;;;;;;5050988;28;20402;-73
2022/04/04 02:52:06;;;;;;;69.28;62.88;;;20.50;51.90;;;;;;5050664;28;20021;-72
2022/04/04 02:54:33;;;;;;;11.27;4.88;;;20.50;51.60;;;;;;5050950;28;20393;-72
2022/04/04 02:56:58;;;;;;;12.18;4.93;;;20.50;51.50;;;;;;5050955;28;20036;-72
2022/04/04 02:59:24;;;;;;;11.52;5.05;;;20.50;51.50;;;;;;5050908;28;20032;-72
2022/04/04 03:01:49;;;;;;;10.27;4.70;;;20.50;51.50;;;;;;5051809;28;20035;-72
2022/04/04 03:04:18;;;;;;;47.53;44.10;;;20.50;51.40;;;;;;5050526;28;20072;-73
2022/04/04 03:06:44;;;;;;;11.13;8.75;;;20.50;51.50;;;;;;5050563;28;20090;-72
2022/04/04 03:09:10;;;;;;;10.68;5.20;;;20.50;51.50;;;;;;5052024;28;20498;-72
2022/04/04 03:11:37;;;;;;;11.77;5.00;;;20.50;51.50;;;;;;5051401;28;20029;-73
2022/04/04 03:14:03;;;;;;;8.75;4.82;;;20.50;51.40;;;;;;5050321;28;20504;-72
2022/04/04 03:16:29;;;;;;;9.27;4.88;;;20.50;51.40;;;;;;5050632;28;20040;-72
2022/04/04 03:18:55;;;;;;;9.13;4.65;;;20.50;51.50;;;;;;5050698;28;20029;-72
2022/04/04 03:21:23;;;;;;;7.72;4.30;;;20.50;51.70;;;;;;5050374;28;20393;-72
2022/04/04 03:23:49;;;;;;;54.40;50.72;;;20.50;51.40;;;;;;5050035;28;20129;-72
2022/04/04 03:26:15;;;;;;;7.35;4.65;;;20.50;51.40;;;;;;5051521;28;20047;-72
2022/04/04 03:28:41;;;;;;;9.68;4.90;;;20.50;51.30;;;;;;5051989;28;20032;-72
2022/04/04 03:31:07;;;;;;;12.80;7.53;;;20.50;51.20;;;;;;5051500;28;20048;-72
2022/04/04 03:33:35;;;;;;;7.32;4.47;;;20.50;51.50;;;;;;5051127;28;20052;-72
2022/04/04 03:36:00;;;;;;;36.85;33.60;;;20.50;51.20;;;;;;5050068;28;20031;-72
2022/04/04 03:38:27;;;;;;;7.70;4.30;;;20.50;51.10;;;;;;5050776;28;20041;-72
2022/04/04 03:40:54;;;;;;;7.53;4.47;;;20.50;51.10;;;;;;5051386;28;20029;-72
2022/04/04 03:43:20;;;;;;;8.80;4.32;;;20.60;51.20;;;;;;5049767;28;20075;-73
2022/04/04 03:45:46;;;;;;;39.70;37.03;;;20.60;51.10;;;;;;5051455;28;20025;-73
2022/04/04 03:48:12;;;;;;;17.67;16.13;;;20.60;51.20;;;;;;5050050;28;20029;-72
2022/04/04 03:50:38;;;;;;;6.78;3.95;;;20.60;51.20;;;;;;5051372;28;20803;-72
2022/04/04 03:53:05;;;;;;;8.45;4.32;;;20.50;51.10;;;;;;5049795;28;20112;-72
2022/04/04 03:55:37;;;;;;;8.63;4.38;;;20.50;51.00;;;;;;5033574;28;20039;-72
2022/04/04 03:58:03;;;;;;;7.18;3.95;;;20.60;51.20;;;;;;5049823;28;20021;-73
2022/04/04 04:00:29;;;;;;;7.30;4.22;;;20.50;51.10;;;;;;5051171;28;20027;-73
2022/04/04 04:02:55;;;;;;;43.58;40.17;;;20.60;51.20;;;;;;5050704;28;20036;-73
2022/04/04 04:05:21;;;;;;;8.02;4.82;;;20.50;51.50;;;;;;5051123;28;20029;-73
2022/04/04 04:07:48;;;;;;;9.80;4.25;;;20.60;51.00;;;;;;5050975;28;20096;-72
2022/04/04 04:10:13;;;;;;;24.10;22.20;;;20.60;51.20;;;;;;5051299;28;20028;-72
2022/04/04 04:12:41;;;;;;;39.28;36.15;;;20.60;51.20;;;;;;5050618;28;20033;-72
2022/04/04 04:15:15;;;;;;;9.07;4.65;;;20.60;51.00;;;;;;5051188;28;20371;-73
2022/04/04 04:17:41;;;;;;;6.80;3.92;;;20.60;51.10;;;;;;5049681;28;20063;-72
2022/04/04 04:20:19;;;;;;;8.50;3.95;;;20.60;51.40;;;;;;5049748;28;20119;-72
2022/04/04 04:23:06;;;;;;;6.50;3.92;;;20.60;51.20;;;;;;5050519;28;20025;-73
2022/04/04 04:25:33;;;;;;;8.65;4.28;;;20.60;51.00;;;;;;5053788;28;20029;-73
2022/04/04 04:28:01;;;;;;;256.05;234.43;;;20.60;51.00;;;;;;5053626;28;20484;-73
2022/04/04 04:30:27;;;;;;;10.82;7.53;;;20.60;51.10;;;;;;5054890;28;20108;-73
2022/04/04 04:32:54;;;;;;;131.50;122.22;;;20.60;51.00;;;;;;5053340;28;20035;-73
2022/04/04 04:35:20;;;;;;;9.75;4.45;;;20.60;51.00;;;;;;5037210;28;20149;-72
2022/04/04 04:37:46;;;;;;;10.95;3.90;;;20.60;50.90;;;;;;5054766;28;20666;-72
2022/04/04 04:40:13;;;;;;;243.10;228.45;;;20.60;50.80;;;;;;5054899;28;20029;-72
2022/04/04 04:42:39;;;;;;;7.45;4.28;;;20.60;50.80;;;;;;5054112;28;20036;-72
2022/04/04 04:45:06;;;;;;;65.57;61.45;;;20.60;50.70;;;;;;5053368;28;20029;-72
2022/04/04 04:47:32;;;;;;;6.05;3.65;;;20.60;50.80;;;;;;5053122;28;20075;-72
2022/04/04 04:50:00;;;;;;;7.60;3.88;;;20.60;50.80;;;;;;5054614;28;20500;-72
2022/04/04 04:52:27;;;;;;;6.63;3.88;;;20.60;50.70;;;;;;5054181;28;20036;-71
2022/04/04 04:54:53;;;;;;;7.95;4.15;;;20.60;50.70;;;;;;5054503;28;20036;-72
2022/04/04 04:57:20;;;;;;;8.25;3.67;;;20.60;50.90;;;;;;5054181;28;20033;-72
2022/04/04 04:59:47;;;;;;;6.68;3.63;;;20.60;50.80;;;;;;5054628;28;20433;-72
2022/04/04 05:02:13;;;;;;;5.82;3.85;;;20.60;50.80;;;;;;5052508;28;20067;-72
2022/04/04 05:04:39;;;;;;;6.95;4.03;;;20.60;50.80;;;;;;5054397;28;20049;-72
2022/04/04 05:07:07;;;;;;;7.10;4.13;;;20.60;50.80;;;;;;5054221;28;20461;-72
2022/04/04 05:09:33;;;;;;;7.13;3.70;;;20.60;50.90;;;;;;5054031;28;20072;-72
2022/04/04 05:11:59;;;;;;;7.75;6.28;;;20.60;51.00;;;;;;5053797;28;20025;-71
2022/04/04 05:14:25;;;;;;;8.43;3.60;;;20.60;50.70;;;;;;5054070;28;20037;-72
2022/04/04 05:16:53;;;;;;;7.53;3.83;;;20.60;51.00;;;;;;5054032;28;20040;-72
2022/04/04 05:19:25;;;;;;;9.70;8.30;;;20.60;50.90;;;;;;5053095;28;20037;-72
2022/04/04 05:21:51;;;;;;;35.78;33.33;;;20.60;50.70;;;;;;5053880;28;20112;-72
2022/04/04 05:24:18;;;;;;;6.38;3.55;;;20.60;51.10;;;;;;5053548;28;20494;-72
2022/04/04 05:26:43;;;;;;;80.70;75.82;;;20.60;50.80;;;;;;5053855;28;20020;-72
2022/04/04 05:29:09;;;;;;;6.57;4.28;;;20.60;50.80;;;;;;5053794;28;20578;-72
2022/04/04 05:31:36;;;;;;;21.73;20.05;;;20.60;50.80;;;;;;5053842;28;20040;-72
2022/04/04 05:34:04;;;;;;;20.25;18.70;;;20.60;50.70;;;;;;5053428;28;20029;-72
2022/04/04 05:36:31;;;;;;;16.70;15.25;;;20.60;50.90;;;;;;5051973;28;20037;-72
2022/04/04 05:38:58;;;;;;;60.95;57.15;;;20.60;50.80;;;;;;5052594;28;20032;-72
2022/04/04 05:41:24;;;;;;;6.57;3.50;;;20.60;50.80;;;;;;5053708;28;20500;-72
2022/04/04 05:43:50;;;;;;;7.25;3.22;;;20.60;50.90;;;;;;5053139;28;20028;-72
2022/04/04 05:46:17;;;;;;;148.93;134.93;;;20.60;50.60;;;;;;5053488;28;20028;-72
2022/04/04 05:48:43;;;;;;;7.22;3.80;;;20.60;50.70;;;;;;5057095;22;20406;-75
2022/04/04 05:51:09;;;;;;;6.10;3.47;;;20.60;50.60;;;;;;5031021;28;20465;-75
2022/04/04 05:53:36;;;;;;;117.22;110.28;;;20.70;50.80;;;;;;5030846;28;20104;-74
2022/04/04 05:56:02;;;;;;;5.90;3.55;;;20.70;50.50;;;;;;5015964;28;20120;-74
2022/04/04 05:58:28;;;;;;;7.00;3.50;;;20.70;50.60;;;;;;5033096;28;20048;-74
2022/04/04 06:00:54;;;;;;;9.00;6.00;;;20.70;50.60;;;;;;5033021;28;20474;-74
2022/04/04 06:03:20;;;;;;;34.63;32.20;;;20.70;50.40;;;;;;5031592;28;20490;-74
2022/04/04 06:05:49;;;;;;;6.18;3.55;;;20.70;50.50;;;;;;5033349;28;20037;-74
2022/04/04 06:08:17;;;;;;;7.32;4.00;;;20.70;51.20;;;;;;5032141;28;20056;-74
2022/04/04 06:10:45;;;;;;;5.65;3.42;;;20.70;50.70;;;;;;5033045;28;20030;-74
2022/04/04 06:13:15;;;;;;;6.30;3.42;;;20.70;50.20;;;;;;5032672;28;20029;-74
2022/04/04 06:15:42;;;;;;;10.38;9.43;;;20.70;50.20;;;;;;5032698;28;20072;-74
2022/04/04 06:18:13;;;;;;;7.93;3.65;;;20.70;50.50;;;;;;5031480;28;20026;-74
2022/04/04 06:20:39;;;;;;;6.88;3.85;;;20.70;50.50;;;;;;5032908;28;20479;-74
2022/04/04 06:23:05;;;;;;;10.15;3.60;;;20.70;50.30;;;;;;5032576;28;20037;-74
2022/04/04 06:25:31;;;;;;;5.82;3.38;;;20.70;50.20;;;;;;5031517;28;20026;-74
2022/04/04 06:27:58;;;;;;;7.53;3.97;;;20.70;50.20;;;;;;5032840;28;20504;-75
2022/04/04 06:30:25;;;;;;;6.53;3.72;;;20.70;50.20;;;;;;5032575;28;20467;-75
2022/04/04 06:32:51;;;;;;;50.33;47.22;;;20.70;50.20;;;;;;5032525;28;20036;-74
2022/04/04 06:35:17;;;;;;;7.10;3.45;;;20.70;50.20;;;;;;5031365;28;20625;-74
2022/04/04 06:37:45;;;;;;;7.20;3.80;;;20.70;50.20;;;;;;5032558;28;20036;-75
2022/04/04 06:40:12;;;;;;;6.93;3.83;;;20.70;49.90;;;;;;5031109;28;20029;-74
2022/04/04 06:42:41;;;;;;;14.40;13.25;;;20.70;50.20;;;;;;5014650;28;20033;-75
2022/04/04 06:45:09;;;;;;;5.80;3.60;;;20.70;50.10;;;;;;5031313;28;20108;-75
2022/04/04 06:47:36;;;;;;;6.30;3.60;;;20.70;50.20;;;;;;5031783;28;20032;-74
2022/04/04 06:50:02;;;;;;;74.38;70.05;;;20.70;50.20;;;;;;5030854;28;20036;-75
2022/04/04 06:52:27;;;;;;;6.65;3.78;;;20.70;50.30;;;;;;5031847;28;20030;-74
2022/04/04 06:54:54;;;;;;;6.13;3.75;;;20.70;50.00;;;;;;5030949;28;20501;-74
2022/04/04 06:57:21;;;;;;;6.75;3.50;;;20.70;50.00;;;;;;5032371;28;20030;-75
2022/04/04 06:59:47;;;;;;;6.18;3.58;;;20.70;49.80;;;;;;5014715;28;20030;-75
2022/04/04 07:02:13;;;;;;;9.85;8.75;;;20.70;49.80;;;;;;5031836;28;20041;-74
2022/04/04 07:04:40;;;;;;;6.13;3.63;;;20.70;49.90;;;;;;5032127;28;20025;-75
2022/04/04 07:07:06;;;;;;;6.15;3.40;;;20.80;49.80;;;;;;5032298;28;20026;-75
2022/04/04 07:09:32;;;;;;;6.68;3.85;;;20.80;50.10;;;;;;5030611;28;20079;-74
2022/04/04 07:11:58;;;;;;;5.97;3.92;;;20.80;50.00;;;;;;5030499;28;20029;-74
2022/04/04 07:14:25;;;;;;;6.90;3.65;;;20.80;49.80;;;;;;5030558;28;20029;-75
2022/04/04 07:16:53;;;;;;;7.80;4.00;;;20.70;49.80;;;;;;5030764;28;20064;-75
2022/04/04 07:19:22;;;;;;;17.13;15.73;;;20.70;49.70;;;;;;5030191;28;20021;-75
2022/04/04 07:21:51;;;;;;;50.40;46.97;;;20.70;49.70;;;;;;5031713;28;20061;-74
2022/04/04 07:24:18;;;;;;;7.47;5.13;;;20.70;49.50;;;;;;5030715;28;20105;-74
2022/04/04 07:26:44;;;;;;;9.32;3.80;;;20.80;49.50;;;;;;5014040;28;20371;-73
2022/04/04 07:29:09;;;;;;;8.70;3.97;;;20.70;49.30;;;;;;5030486;28;20039;-73
2022/04/04 07:31:36;;;;;;;12.65;8.38;;;20.80;49.30;;;;;;5031616;28;20116;-73
2022/04/04 07:34:03;;;;;;;7.45;4.10;;;20.80;49.50;;;;;;5031406;28;20024;-73
2022/04/04 07:36:30;;;;;;;42.15;39.30;;;20.80;49.30;;;;;;5030500;28;20033;-73
2022/04/04 07:38:55;;;;;;;10.85;3.75;;;20.70;49.40;;;;;;5031624;28;20029;-74
2022/04/04 07:41:21;;;;;;;57.45;53.50;;;20.70;49.40;;;;;;5031373;28;20033;-74
2022/04/04 07:43:47;;;;;;;8.18;3.90;;;20.70;49.30;;;;;;5029721;28;20030;-74
2022/04/04 07:46:13;;;;;;;6.28;3.70;;;20.70;49.30;;;;;;5031428;28;20061;-74
2022/04/04 07:48:41;;;;;;;8.60;5.15;;;20.70;49.70;;;;;;5028508;28;20059;-74
2022/04/04 07:51:08;;;;;;;44.03;34.85;;;20.80;49.40;;;;;;5026230;28;20045;-74
2022/04/04 07:53:34;;;;;;;37.13;33.78;;;20.80;49.10;;;;;;5031058;28;20034;-74
2022/04/04 07:55:59;;;;;;;121.88;95.30;;;20.80;49.40;;;;;;5029626;28;20037;-74
2022/04/04 07:58:25;;;;;;;298.33;280.40;;;20.80;49.50;;;;;;5030824;28;20033;-70
2022/04/04 08:00:52;;;;;;;18.10;5.53;;;20.80;49.70;;;;;;5029814;28;20030;-74
2022/04/04 08:03:19;;;;;;;60.78;56.70;;;20.80;44.30;;;;;;5027960;28;20022;-74
2022/04/04 08:05:45;;;;;;;166.50;153.50;;;20.60;43.90;;;;;;5030439;28;20160;-75
2022/04/04 08:08:11;;;;;;;32.33;29.83;;;20.60;44.60;;;;;;5030791;28;20776;-72
2022/04/04 08:10:37;;;;;;;21.10;18.38;;;20.60;46.50;;;;;;5013424;28;20026;-73
2022/04/04 08:13:03;;;;;;;17.77;13.82;;;20.70;47.00;;;;;;5030866;28;20490;-74
2022/04/04 08:15:29;;;;;;;14.65;9.65;;;20.80;46.70;;;;;;5029842;28;20026;-73
2022/04/04 08:17:54;;;;;;;66.43;62.00;;;20.80;46.70;;;;;;5030796;28;20033;-73
2022/04/04 08:24:38;;;;;;;;;;;20.80;47.20;;;;;;5028323;28;20040;-73
2022/04/04 08:27:04;;;;;;;19.88;14.10;;;20.90;47.40;;;;;;5030747;28;19909;-74
2022/04/04 08:29:30;;;;;;;124.07;95.63;;;20.80;46.90;;;;;;5030387;28;20026;-74
2022/04/04 08:31:56;;;;;;;89.32;75.30;;;20.80;45.80;;;;;;5029109;28;20036;-74
2022/04/04 08:34:21;;;;;;;70.25;58.38;;;20.60;43.20;;;;;;5031426;28;20172;-75
2022/04/04 08:36:47;;;;;;;43.22;31.77;;;20.60;43.40;;;;;;5030692;28;20029;-74
2022/04/04 08:39:13;;;;;;;102.75;94.18;;;20.60;45.10;;;;;;5030775;28;20504;-74
2022/04/04 08:41:39;;;;;;;44.92;36.13;;;20.60;45.70;;;;;;5030670;28;20086;-74
2022/04/04 08:44:05;;;;;;;72.45;65.43;;;20.60;45.50;;;;;;5030491;28;20033;-74
2022/04/04 08:46:35;;;;;;;54.00;47.20;;;20.60;46.10;;;;;;5029436;28;20021;-74
2022/04/04 08:49:05;;;;;;;145.18;134.02;;;20.70;45.50;;;;;;5029458;28;20034;-74
2022/04/04 08:51:31;;;;;;;53.15;42.30;;;20.70;45.60;;;;;;5029429;28;20060;-74
2022/04/04 08:53:57;;;;;;;166.38;154.50;;;20.70;45.80;;;;;;5029193;28;20500;-74
2022/04/04 08:56:24;;;;;;;75.28;68.20;;;20.70;45.60;;;;;;5030476;28;20026;-74
2022/04/04 08:58:51;;;;;;;52.58;43.35;;;20.70;45.70;;;;;;5029635;28;20090;-74
2022/04/04 09:01:21;;;;;;;90.07;82.20;;;20.70;46.00;;;;;;5030627;28;20083;-74
2022/04/04 09:06:57;;;;;;;216.25;201.35;;;20.80;46.40;;;;;;5874503;23;20365;-75
2022/04/04 09:09:43;;;;;;;139.68;124.88;;;20.80;46.30;;;;;;4948378;28;20114;-77
2022/04/04 09:12:09;;;;;;;114.53;104.60;;;20.60;39.60;;;;;;4955074;28;20054;-77
2022/04/04 09:14:52;;;;;;;111.47;102.50;;;20.40;37.80;;;;;;4956231;28;20058;-77
2022/04/04 09:17:23;;;;;;;20.60;10.75;;;20.10;36.80;;;;;;4952444;28;20074;-78
2022/04/04 09:19:49;;;;;;;32.55;26.65;;;20.10;36.30;;;;;;4955617;28;20023;-77
2022/04/04 09:22:20;;;;;;;22.98;14.38;;;20.10;37.50;;;;;;4955694;28;20471;-76
2022/04/04 09:24:56;;;;;;;36.83;32.92;;;20.30;38.40;;;;;;4938739;28;20507;-77
2022/04/04 09:27:30;;;;;;;21.58;12.35;;;20.30;39.20;;;;;;4938449;28;20077;-78
2022/04/04 09:30:01;;;;;;;42.53;39.13;;;20.40;39.70;;;;;;4955509;28;20023;-78
2022/04/04 09:32:46;;;;;;;31.83;25.98;;;20.50;40.30;;;;;;4954508;28;20511;-78
2022/04/04 09:35:18;;;;;;;64.22;59.17;;;20.60;40.50;;;;;;4954596;29;20031;-78
2022/04/04 09:37:48;;;;;;;123.45;116.05;;;20.50;40.70;;;;;;4954521;29;20458;-77
2022/04/04 09:40:23;;;;;;;46.78;42.97;;;20.60;40.80;;;;;;4954492;28;20031;-77
2022/04/04 09:42:52;;;;;;;79.15;73.82;;;20.60;41.20;;;;;;4938290;29;20039;-77
2022/04/04 09:45:23;;;;;;;233.07;218.93;;;20.70;41.40;;;;;;4955472;28;20114;-77
2022/04/04 09:47:58;;;;;;;117.05;109.85;;;20.70;41.30;;;;;;4954060;28;20031;-77
2022/04/04 09:50:46;;;;;;;91.93;85.93;;;20.70;41.40;;;;;;4955934;28;20024;-77
2022/04/04 09:53:39;;;;;;;46.50;42.88;;;20.70;41.80;;;;;;4954488;28;20040;-77
2022/04/04 09:56:05;;;;;;;18.33;11.60;;;20.70;41.80;;;;;;4953270;28;20039;-77
2022/04/04 09:58:31;;;;;;;68.85;63.90;;;20.80;42.00;;;;;;4955021;28;20476;-77
2022/04/04 10:00:59;;;;;;;97.38;91.10;;;20.70;42.20;;;;;;4955347;28;20039;-77
2022/04/04 10:03:25;;;;;;;62.40;58.08;;;20.80;42.30;;;;;;4955282;29;20109;-77
2022/04/04 10:06:05;;;;;;;33.40;29.73;;;20.80;42.50;;;;;;4955426;28;20062;-76
2022/04/04 10:08:31;;;;;;;17.48;11.80;;;20.80;42.50;;;;;;4955031;28;20035;-76
2022/04/04 10:10:58;;;;;;;78.32;72.85;;;20.80;42.40;;;;;;4955021;29;20078;-76
2022/04/04 10:13:26;;;;;;;57.33;53.25;;;20.80;42.80;;;;;;4953791;28;20057;-76
2022/04/04 10:15:52;;;;;;;22.48;20.30;;;20.80;42.70;;;;;;4937707;28;20399;-76
2022/04/04 10:18:19;;;;;;;208.98;196.50;;;20.80;42.80;;;;;;4954599;28;20079;-76
2022/04/04 10:20:53;;;;;;;153.20;144.05;;;20.80;42.80;;;;;;4952103;28;20057;-76
2022/04/04 10:23:20;;;;;;;18.08;9.80;;;20.80;43.00;;;;;;4954701;28;20031;-76
2022/04/04 10:25:49;;;;;;;42.58;39.05;;;20.80;43.00;;;;;;4938096;29;20032;-75
2022/04/04 10:28:32;;;;;;;47.13;43.55;;;20.90;43.10;;;;;;4952805;29;20027;-77
2022/04/04 10:31:00;;;;;;;31.27;28.52;;;20.80;43.60;;;;;;4954675;28;20042;-77
2022/04/04 10:33:26;;;;;;;147.25;126.18;;;20.80;43.20;;;;;;4953492;29;20035;-76
2022/04/04 10:36:00;;;;;;;24.70;16.92;;;20.80;43.30;;;;;;4942526;28;20338;-76
2022/04/04 10:38:38;;;;;;;36.50;33.15;;;20.80;43.40;;;;;;4948354;29;20039;-77
2022/04/04 10:41:07;;;;;;;17.25;11.75;;;20.90;43.60;;;;;;4951304;28;20154;-77
2022/04/04 10:43:35;;;;;;;114.68;104.80;;;20.90;43.70;;;;;;4951591;28;20102;-77
2022/04/04 10:46:07;;;;;;;60.63;55.70;;;20.90;43.70;;;;;;4950953;28;20035;-77
2022/04/04 10:48:48;;;;;;;47.08;34.92;;;20.90;43.90;;;;;;4951760;28;20118;-77
2022/04/04 10:51:26;;;;;;;392.65;359.45;;;20.90;44.50;;;;;;4949815;28;20555;-70
2022/04/04 10:54:03;;;;;;;39.95;25.52;;;20.90;43.20;;;;;;4935754;29;20403;-73
2022/04/04 10:56:30;;;;;;;314.02;286.35;;;20.60;37.30;;;;;;4936026;29;20398;-71
2022/04/04 10:59:15;;;;;;;41.13;37.67;;;20.30;35.60;;;;;;4934185;29;20039;-77
2022/04/04 11:01:44;;;;;;;48.42;44.40;;;20.20;35.20;;;;;;4950400;28;20031;-77
2022/04/04 11:04:29;;;;;;;118.90;110.93;;;20.20;36.20;;;;;;4950125;28;20105;-77
2022/04/04 11:09:52;;;;;;;222.07;209.05;;;20.40;38.10;;;;;;4934163;29;20043;-77
2022/04/04 11:12:21;;;;;;;195.95;184.23;;;20.50;38.50;;;;;;4950510;28;20038;-76
2022/04/04 11:15:01;;;;;;;30.75;27.67;;;20.50;39.20;;;;;;4950192;28;20027;-77
2022/04/04 11:17:30;;;;;;;29.58;26.80;;;20.60;39.10;;;;;;4950787;29;20499;-78
2022/04/04 11:20:43;;;;;;;48.88;44.97;;;20.60;39.30;;;;;;4951920;28;20031;-79
2022/04/04 11:23:10;;;;;;;57.50;53.38;;;20.70;39.30;;;;;;4953374;28;20063;-78
2022/04/04 11:25:49;;;;;;;32.53;29.58;;;20.70;39.50;;;;;;4954601;28;20043;-78
2022/04/04 11:28:20;;;;;;;36.00;32.75;;;20.70;39.60;;;;;;4953029;28;20027;-80
2022/04/04 11:30:47;;;;;;;31.63;28.63;;;20.70;39.80;;;;;;4952662;29;20031;-76
2022/04/04 11:33:22;;;;;;;15.63;9.20;;;20.80;40.00;;;;;;4953209;28;20118;-76
2022/04/04 11:35:49;;;;;;;28.48;25.67;;;20.70;39.90;;;;;;4920810;29;20039;-75
2022/04/04 11:38:19;;;;;;;16.70;9.15;;;20.80;40.30;;;;;;4936134;29;20043;-77
2022/04/04 11:40:52;;;;;;;43.38;40.05;;;20.80;40.40;;;;;;4936397;29;20291;-76
2022/04/04 11:43:21;;;;;;;21.70;19.30;;;20.80;40.40;;;;;;4952249;28;20039;-77
2022/04/04 11:45:49;;;;;;;27.80;22.58;;;20.80;40.60;;;;;;4952882;28;20027;-77
2022/04/04 11:48:23;;;;;;;26.77;21.90;;;20.80;40.70;;;;;;4952411;28;20062;-75
2022/04/04 11:50:51;;;;;;;19.05;15.57;;;20.80;40.70;;;;;;4952211;29;20487;-77
2022/04/04 11:53:22;;;;;;;34.33;31.52;;;20.80;40.90;;;;;;4936495;29;20047;-77
2022/04/04 11:55:48;;;;;;;14.88;9.18;;;20.80;40.80;;;;;;4936839;29;20115;-77
2022/04/04 11:58:20;;;;;;;35.35;32.55;;;20.80;41.00;;;;;;4953498;29;20041;-77
2022/04/04 12:00:55;;;;;;;39.72;36.22;;;20.80;40.90;;;;;;4952699;28;20094;-77
2022/04/04 12:03:23;;;;;;;220.25;194.15;;;20.80;41.20;;;;;;4952588;28;20027;-79
2022/04/04 12:05:50;;;;;;;18.48;16.00;;;20.90;41.30;;;;;;4950650;29;20035;-77
2022/04/04 12:08:18;;;;;;;19.42;15.48;;;20.80;41.30;;;;;;4951362;29;20447;-76
2022/04/04 12:10:47;;;;;;;564.60;517.72;;;20.90;41.50;;;;;;4952980;28;20023;-71
2022/04/04 12:13:18;;;;;;;179.10;168.10;;;20.80;41.50;;;;;;4954440;28;20058;-76
2022/04/04 12:15:44;;;;;;;35.65;31.90;;;20.70;39.00;;;;;;4953591;28;20031;-77
2022/04/04 12:18:12;;;;;;;400.40;368.42;;;20.50;38.00;;;;;;4920210;29;20399;-77
2022/04/04 12:20:44;;;;;;;179.07;167.70;;;20.50;39.20;;;;;;4935227;29;20650;-77
2022/04/04 12:26:06;;;;;;;74.32;68.47;;;20.60;39.20;;;;;;4952903;28;20035;-76
2022/04/04 12:28:38;;;;;;;162.80;152.25;;;20.70;39.40;;;;;;4904726;29;20399;-76
2022/04/04 12:31:18;;;;;;;137.68;128.85;;;20.70;39.60;;;;;;4952881;28;20027;-76
2022/04/04 12:33:45;;;;;;;30.05;27.20;;;20.80;39.70;;;;;;4952800;29;20026;-76
2022/04/04 12:36:11;;;;;;;37.33;33.72;;;20.80;39.90;;;;;;4952079;28;20395;-77
2022/04/04 12:38:38;;;;;;;46.78;43.13;;;20.80;40.00;;;;;;4935533;29;20031;-77
2022/04/04 12:41:15;;;;;;;53.10;48.92;;;20.80;40.10;;;;;;4935629;29;20530;-77
2022/04/04 12:43:43;;;;;;;38.63;35.33;;;20.80;40.20;;;;;;4952987;28;20035;-77
2022/04/04 12:46:30;;;;;;;27.35;24.73;;;20.80;40.30;;;;;;4938201;29;20028;-77
2022/04/04 12:49:07;;;;;;;78.28;73.05;;;20.80;40.40;;;;;;4956548;28;20074;-77
2022/04/04 12:51:34;;;;;;;42.40;38.65;;;20.80;40.60;;;;;;4956786;28;20038;-77
2022/04/04 12:54:00;;;;;;;59.53;54.95;;;20.80;40.60;;;;;;4955473;29;20118;-76